PWSweather.com
Personal Weather Stations
Station Observations
IHTIMAN1
Neighbourhood 1, IhtimanBG 2050

Neighbourhood 1IhtimanBG 2050

Lat: 42.436852, Lon: 23.817921

Elevation: 2066

Station Type: Oregon Scientific WMR968

http://ihtiman-meteo.com

High Low Average
Temperature 83.0°F28.3°C 50.5°F10.3°C 66.9°F19.4°C
Dew Point 58.4°F14.7°C 49.8°F9.9°C 52.7°F11.5°C
Winds 8.1 mph 13.0 kmh Calm Calm 3.0 mph S4.8 kmh S
Wind Gusts 12.7 mph20.4 kmh -- 4.0 mph6.4 kmh
Humidity 98% 34% 65%
Pressure 30.18 in1022.0 mb 30.12 in1020.0 mb -
Precipitation 0.00 in0.0 mm - -
Hour Temp Dew Point Humidity Winds Wind Gusts Pressure Precip Precip Rate Daily Precip Total
12:00 AM 56.7°F13.7°C 53.5°F11.9°C 89% Calm Calm 2.3 mph3.7 kmh 30.12 in1020.0 mb - 0.00 in0.0 mm 0.00 in0.0 mm
12:10 AM 56.5°F13.6°C 53.6°F12.0°C 90% Calm Calm -- 30.12 in1020.0 mb - 0.00 in0.0 mm 0.00 in0.0 mm
12:20 AM 56.3°F13.5°C 53.4°F11.9°C 90% 3.5 mph SE5.6 kmh SE 3.5 mph5.6 kmh 30.15 in1021.0 mb - 0.00 in0.0 mm 0.00 in0.0 mm
12:30 AM 55.8°F13.2°C 53.2°F11.8°C 91% Calm Calm -- 30.15 in1021.0 mb - 0.00 in0.0 mm 0.00 in0.0 mm
12:40 AM 55.4°F13.0°C 52.8°F11.6°C 91% Calm Calm -- 30.15 in1021.0 mb - 0.00 in0.0 mm 0.00 in0.0 mm
12:50 AM 55.0°F12.8°C 52.8°F11.6°C 92% Calm Calm -- 30.12 in1020.0 mb - 0.00 in0.0 mm 0.00 in0.0 mm
01:00 AM 54.9°F12.7°C 52.6°F11.4°C 92% Calm Calm -- 30.12 in1020.0 mb - 0.00 in0.0 mm 0.00 in0.0 mm
01:10 AM 54.9°F12.7°C 52.9°F11.6°C 93% Calm Calm -- 30.12 in1020.0 mb - 0.00 in0.0 mm 0.00 in0.0 mm
01:20 AM 54.7°F12.6°C 53.0°F11.7°C 94% Calm Calm -- 30.12 in1020.0 mb - 0.00 in0.0 mm 0.00 in0.0 mm
01:30 AM 54.6°F12.6°C 52.9°F11.6°C 94% Calm Calm -- 30.12 in1020.0 mb - 0.00 in0.0 mm 0.00 in0.0 mm
01:40 AM 54.5°F12.5°C 52.8°F11.6°C 94% Calm Calm -- 30.12 in1020.0 mb - 0.00 in0.0 mm 0.00 in0.0 mm
01:50 AM 54.3°F12.4°C 52.9°F11.6°C 95% 2.3 mph SSE3.7 kmh SSE 2.3 mph3.7 kmh 30.12 in1020.0 mb - 0.00 in0.0 mm 0.00 in0.0 mm
02:00 AM 53.8°F12.1°C 52.4°F11.3°C 95% Calm Calm -- 30.12 in1020.0 mb - 0.00 in0.0 mm 0.00 in0.0 mm
02:10 AM 53.4°F11.9°C 52.0°F11.1°C 95% Calm Calm -- 30.12 in1020.0 mb - 0.00 in0.0 mm 0.00 in0.0 mm
02:20 AM 53.2°F11.8°C 51.8°F11.0°C 95% Calm Calm -- 30.12 in1020.0 mb - 0.00 in0.0 mm 0.00 in0.0 mm
02:30 AM 53.0°F11.7°C 51.6°F10.9°C 95% 2.3 mph SSW3.7 kmh SSW 2.3 mph3.7 kmh 30.12 in1020.0 mb - 0.00 in0.0 mm 0.00 in0.0 mm
02:40 AM 52.5°F11.4°C 51.1°F10.6°C 95% Calm Calm -- 30.12 in1020.0 mb - 0.00 in0.0 mm 0.00 in0.0 mm
02:50 AM 52.3°F11.3°C 51.2°F10.7°C 96% Calm Calm 3.5 mph5.6 kmh 30.12 in1020.0 mb - 0.00 in0.0 mm 0.00 in0.0 mm
03:00 AM 52.3°F11.3°C 51.2°F10.7°C 96% 3.5 mph SSE5.6 kmh SSE 3.5 mph5.6 kmh 30.12 in1020.0 mb - 0.00 in0.0 mm 0.00 in0.0 mm
03:10 AM 52.1°F11.2°C 51.0°F10.6°C 96% Calm Calm -- 30.12 in1020.0 mb - 0.00 in0.0 mm 0.00 in0.0 mm
03:20 AM 51.8°F11.0°C 50.7°F10.4°C 96% Calm Calm -- 30.12 in1020.0 mb - 0.00 in0.0 mm 0.00 in0.0 mm
03:30 AM 51.6°F10.9°C 50.8°F10.4°C 97% Calm Calm -- 30.12 in1020.0 mb - 0.00 in0.0 mm 0.00 in0.0 mm
03:40 AM 51.6°F10.9°C 50.8°F10.4°C 97% Calm Calm -- 30.12 in1020.0 mb - 0.00 in0.0 mm 0.00 in0.0 mm
03:50 AM 51.6°F10.9°C 50.8°F10.4°C 97% Calm Calm -- 30.12 in1020.0 mb - 0.00 in0.0 mm 0.00 in0.0 mm
04:00 AM 51.6°F10.9°C 50.8°F10.4°C 97% Calm Calm 3.5 mph5.6 kmh 30.12 in1020.0 mb - 0.00 in0.0 mm 0.00 in0.0 mm
04:10 AM 51.3°F10.7°C 50.4°F10.2°C 97% Calm Calm -- 30.12 in1020.0 mb - 0.00 in0.0 mm 0.00 in0.0 mm
04:20 AM 51.1°F10.6°C 50.3°F10.2°C 97% Calm Calm -- 30.12 in1020.0 mb - 0.00 in0.0 mm 0.00 in0.0 mm
04:30 AM 51.1°F10.6°C 50.3°F10.2°C 97% Calm Calm -- 30.12 in1020.0 mb - 0.00 in0.0 mm 0.00 in0.0 mm
04:40 AM 50.9°F10.5°C 50.1°F10.1°C 97% Calm Calm -- 30.12 in1020.0 mb - 0.00 in0.0 mm 0.00 in0.0 mm
04:50 AM 50.7°F10.4°C 49.9°F9.9°C 97% Calm Calm -- 30.12 in1020.0 mb - 0.00 in0.0 mm 0.00 in0.0 mm
05:00 AM 50.7°F10.4°C 50.2°F10.1°C 98% Calm Calm -- 30.12 in1020.0 mb - 0.00 in0.0 mm 0.00 in0.0 mm
05:10 AM 50.5°F10.3°C 50.0°F10.0°C 98% Calm Calm -- 30.12 in1020.0 mb - 0.00 in0.0 mm 0.00 in0.0 mm
05:20 AM 50.5°F10.3°C 50.0°F10.0°C 98% Calm Calm -- 30.15 in1021.0 mb - 0.00 in0.0 mm 0.00 in0.0 mm
05:30 AM 50.8°F10.4°C 50.3°F10.2°C 98% Calm Calm -- 30.15 in1021.0 mb - 0.00 in0.0 mm 0.00 in0.0 mm
05:40 AM 50.9°F10.5°C 50.4°F10.2°C 98% Calm Calm -- 30.15 in1021.0 mb - 0.00 in0.0 mm 0.00 in0.0 mm
05:50 AM 50.9°F10.5°C 50.4°F10.2°C 98% Calm Calm -- 30.15 in1021.0 mb - 0.00 in0.0 mm 0.00 in0.0 mm
06:00 AM 51.3°F10.7°C 50.7°F10.4°C 98% Calm Calm -- 30.15 in1021.0 mb - 0.00 in0.0 mm 0.00 in0.0 mm
06:10 AM 51.6°F10.9°C 51.1°F10.6°C 98% Calm Calm -- 30.15 in1021.0 mb - 0.00 in0.0 mm 0.00 in0.0 mm
06:20 AM 52.2°F11.2°C 51.6°F10.9°C 98% Calm Calm -- 30.15 in1021.0 mb - 0.00 in0.0 mm 0.00 in0.0 mm
06:30 AM 52.8°F11.6°C 52.2°F11.2°C 98% Calm Calm -- 30.15 in1021.0 mb - 0.00 in0.0 mm 0.00 in0.0 mm
06:40 AM 53.2°F11.8°C 52.7°F11.5°C 98% Calm Calm -- 30.15 in1021.0 mb - 0.00 in0.0 mm 0.00 in0.0 mm
06:50 AM 54.0°F12.2°C 53.4°F11.9°C 98% Calm Calm -- 30.15 in1021.0 mb - 0.00 in0.0 mm 0.00 in0.0 mm
07:00 AM 54.9°F12.7°C 54.3°F12.4°C 98% Calm Calm -- 30.15 in1021.0 mb - 0.00 in0.0 mm 0.00 in0.0 mm
07:10 AM 56.1°F13.4°C 55.5°F13.1°C 98% Calm Calm -- 30.15 in1021.0 mb - 0.00 in0.0 mm 0.00 in0.0 mm
07:20 AM 59.2°F15.1°C 58.4°F14.7°C 97% Calm Calm -- 30.15 in1021.0 mb - 0.00 in0.0 mm 0.00 in0.0 mm
07:30 AM 61.0°F16.1°C 58.0°F14.4°C 90% 2.3 mph SW3.7 kmh SW 3.5 mph5.6 kmh 30.15 in1021.0 mb - 0.00 in0.0 mm 0.00 in0.0 mm
07:40 AM 62.6°F17.0°C 57.0°F13.9°C 82% 3.5 mph WSW5.6 kmh WSW 3.5 mph5.6 kmh 30.15 in1021.0 mb - 0.00 in0.0 mm 0.00 in0.0 mm
07:50 AM 63.8°F17.7°C 56.8°F13.8°C 78% 2.3 mph S3.7 kmh S 3.5 mph5.6 kmh 30.15 in1021.0 mb - 0.00 in0.0 mm 0.00 in0.0 mm
08:00 AM 65.1°F18.4°C 56.6°F13.7°C 74% Calm Calm -- 30.15 in1021.0 mb - 0.00 in0.0 mm 0.00 in0.0 mm
08:10 AM 66.5°F19.2°C 56.0°F13.3°C 69% Calm Calm -- 30.15 in1021.0 mb - 0.00 in0.0 mm 0.00 in0.0 mm
08:20 AM 68.0°F20.0°C 56.2°F13.4°C 66% 3.5 mph NNW5.6 kmh NNW 3.5 mph5.6 kmh 30.15 in1021.0 mb - 0.00 in0.0 mm 0.00 in0.0 mm
08:30 AM 67.9°F19.9°C 55.3°F12.9°C 64% 4.6 mph NW7.4 kmh NW 4.6 mph7.4 kmh 30.18 in1022.0 mb - 0.00 in0.0 mm 0.00 in0.0 mm
08:40 AM 68.9°F20.5°C 55.8°F13.2°C 63% 4.6 mph N7.4 kmh N 5.8 mph9.3 kmh 30.18 in1022.0 mb - 0.00 in0.0 mm 0.00 in0.0 mm
08:50 AM 69.6°F20.9°C 55.6°F13.1°C 61% Calm Calm -- 30.18 in1022.0 mb - 0.00 in0.0 mm 0.00 in0.0 mm
09:00 AM 69.5°F20.8°C 55.4°F13.0°C 61% 3.5 mph NW5.6 kmh NW 5.8 mph9.3 kmh 30.15 in1021.0 mb - 0.00 in0.0 mm 0.00 in0.0 mm
09:10 AM 71.5°F21.9°C 56.4°F13.6°C 59% 3.5 mph N5.6 kmh N 8.1 mph13.0 kmh 30.15 in1021.0 mb - 0.00 in0.0 mm 0.00 in0.0 mm
09:20 AM 72.3°F22.4°C 56.2°F13.4°C 57% 4.6 mph N7.4 kmh N 8.1 mph13.0 kmh 30.15 in1021.0 mb - 0.00 in0.0 mm 0.00 in0.0 mm
09:30 AM 72.3°F22.4°C 54.7°F12.6°C 54% 4.6 mph N7.4 kmh N 5.8 mph9.3 kmh 30.15 in1021.0 mb - 0.00 in0.0 mm 0.00 in0.0 mm
09:40 AM 73.8°F23.2°C 55.0°F12.8°C 52% 3.5 mph NNE5.6 kmh NNE 3.5 mph5.6 kmh 30.15 in1021.0 mb - 0.00 in0.0 mm 0.00 in0.0 mm
09:50 AM 73.4°F23.0°C 54.1°F12.3°C 51% 5.8 mph N9.3 kmh N 4.6 mph7.4 kmh 30.18 in1022.0 mb - 0.00 in0.0 mm 0.00 in0.0 mm
10:00 AM 75.0°F23.9°C 53.4°F11.9°C 47% 4.6 mph N7.4 kmh N 8.1 mph13.0 kmh 30.18 in1022.0 mb - 0.00 in0.0 mm 0.00 in0.0 mm
10:10 AM 75.7°F24.3°C 52.3°F11.3°C 44% 6.9 mph N11.1 kmh N 10.4 mph16.7 kmh 30.18 in1022.0 mb - 0.00 in0.0 mm 0.00 in0.0 mm
10:20 AM 75.6°F24.2°C 52.2°F11.2°C 44% 5.8 mph NNW9.3 kmh NNW 9.2 mph14.8 kmh 30.18 in1022.0 mb - 0.00 in0.0 mm 0.00 in0.0 mm
10:30 AM 76.2°F24.6°C 52.7°F11.5°C 44% 5.8 mph NNE9.3 kmh NNE 6.9 mph11.1 kmh 30.18 in1022.0 mb - 0.00 in0.0 mm 0.00 in0.0 mm
10:40 AM 76.3°F24.6°C 52.2°F11.2°C 43% 4.6 mph N7.4 kmh N 10.4 mph16.7 kmh 30.18 in1022.0 mb - 0.00 in0.0 mm 0.00 in0.0 mm
10:50 AM 76.3°F24.6°C 52.1°F11.2°C 43% 6.9 mph N11.1 kmh N 9.2 mph14.8 kmh 30.18 in1022.0 mb - 0.00 in0.0 mm 0.00 in0.0 mm
11:00 AM 77.1°F25.1°C 52.8°F11.6°C 43% 4.6 mph N7.4 kmh N 8.1 mph13.0 kmh 30.18 in1022.0 mb - 0.00 in0.0 mm 0.00 in0.0 mm
11:10 AM 75.7°F24.3°C 50.9°F10.5°C 42% 3.5 mph WNW5.6 kmh WNW 5.8 mph9.3 kmh 30.18 in1022.0 mb - 0.00 in0.0 mm 0.00 in0.0 mm
11:20 AM 76.2°F24.6°C 52.7°F11.5°C 44% 5.8 mph N9.3 kmh N 9.2 mph14.8 kmh 30.18 in1022.0 mb - 0.00 in0.0 mm 0.00 in0.0 mm
11:30 AM 75.7°F24.3°C 51.0°F10.6°C 42% 3.5 mph NNW5.6 kmh NNW 5.8 mph9.3 kmh 30.18 in1022.0 mb - 0.00 in0.0 mm 0.00 in0.0 mm
11:40 AM 76.9°F24.9°C 52.0°F11.1°C 42% 3.5 mph N5.6 kmh N 8.1 mph13.0 kmh 30.18 in1022.0 mb - 0.00 in0.0 mm 0.00 in0.0 mm
11:50 AM 77.5°F25.3°C 52.0°F11.1°C 41% 2.3 mph NE3.7 kmh NE 3.5 mph5.6 kmh 30.18 in1022.0 mb - 0.00 in0.0 mm 0.00 in0.0 mm
12:00 PM 78.4°F25.8°C 52.8°F11.6°C 41% 5.8 mph N9.3 kmh N 10.4 mph16.7 kmh 30.18 in1022.0 mb - 0.00 in0.0 mm 0.00 in0.0 mm
12:10 PM 78.7°F25.9°C 53.0°F11.7°C 41% 8.1 mph NW13.0 kmh NW 10.4 mph16.7 kmh 30.18 in1022.0 mb - 0.00 in0.0 mm 0.00 in0.0 mm
12:20 PM 79.1°F26.2°C 53.4°F11.9°C 41% 5.8 mph N9.3 kmh N 8.1 mph13.0 kmh 30.18 in1022.0 mb - 0.00 in0.0 mm 0.00 in0.0 mm
12:30 PM 79.5°F26.4°C 53.7°F12.1°C 41% 6.9 mph NNW11.1 kmh NNW 9.2 mph14.8 kmh 30.18 in1022.0 mb - 0.00 in0.0 mm 0.00 in0.0 mm
12:40 PM 78.6°F25.9°C 52.9°F11.6°C 41% 5.8 mph N9.3 kmh N 9.2 mph14.8 kmh 30.18 in1022.0 mb - 0.00 in0.0 mm 0.00 in0.0 mm
12:50 PM 79.1°F26.2°C 53.4°F11.9°C 41% 2.3 mph N3.7 kmh N 5.8 mph9.3 kmh 30.18 in1022.0 mb - 0.00 in0.0 mm 0.00 in0.0 mm
01:00 PM 79.7°F26.5°C 53.2°F11.8°C 40% 5.8 mph NNW9.3 kmh NNW 10.4 mph16.7 kmh 30.18 in1022.0 mb - 0.00 in0.0 mm 0.00 in0.0 mm
01:10 PM 78.9°F26.1°C 52.5°F11.4°C 40% 4.6 mph NW7.4 kmh NW 8.1 mph13.0 kmh 30.18 in1022.0 mb - 0.00 in0.0 mm 0.00 in0.0 mm
01:20 PM 78.0°F25.6°C 51.7°F10.9°C 40% 6.9 mph NNW11.1 kmh NNW 9.2 mph14.8 kmh 30.18 in1022.0 mb - 0.00 in0.0 mm 0.00 in0.0 mm
01:30 PM 78.5°F25.8°C 52.8°F11.6°C 41% 3.5 mph W5.6 kmh W 5.8 mph9.3 kmh 30.18 in1022.0 mb - 0.00 in0.0 mm 0.00 in0.0 mm
01:40 PM 81.0°F27.2°C 53.0°F11.7°C 38% 6.9 mph N11.1 kmh N 12.7 mph20.4 kmh 30.18 in1022.0 mb - 0.00 in0.0 mm 0.00 in0.0 mm
01:50 PM 80.4°F26.9°C 53.8°F12.1°C 40% 4.6 mph N7.4 kmh N 8.1 mph13.0 kmh 30.18 in1022.0 mb - 0.00 in0.0 mm 0.00 in0.0 mm
02:00 PM 82.1°F27.8°C 53.3°F11.8°C 37% 8.1 mph NW13.0 kmh NW 12.7 mph20.4 kmh 30.18 in1022.0 mb - 0.00 in0.0 mm 0.00 in0.0 mm
02:10 PM 82.4°F28.0°C 52.8°F11.6°C 36% 6.9 mph NNW11.1 kmh NNW 10.4 mph16.7 kmh 30.18 in1022.0 mb - 0.00 in0.0 mm 0.00 in0.0 mm
02:20 PM 81.8°F27.7°C 51.5°F10.8°C 35% 4.6 mph ENE7.4 kmh ENE 5.8 mph9.3 kmh 30.18 in1022.0 mb - 0.00 in0.0 mm 0.00 in0.0 mm
02:30 PM 83.0°F28.3°C 52.6°F11.4°C 35% 5.8 mph N9.3 kmh N 8.1 mph13.0 kmh 30.18 in1022.0 mb - 0.00 in0.0 mm 0.00 in0.0 mm
02:40 PM 82.0°F27.8°C 50.9°F10.5°C 34% 5.8 mph N9.3 kmh N 8.1 mph13.0 kmh 30.18 in1022.0 mb - 0.00 in0.0 mm 0.00 in0.0 mm
02:50 PM 79.8°F26.6°C 50.5°F10.3°C 36% 4.6 mph E7.4 kmh E 5.8 mph9.3 kmh 30.18 in1022.0 mb - 0.00 in0.0 mm 0.00 in0.0 mm
03:00 PM 76.6°F24.8°C 49.8°F9.9°C 39% 3.5 mph N5.6 kmh N 5.8 mph9.3 kmh 30.18 in1022.0 mb - 0.00 in0.0 mm 0.00 in0.0 mm
03:10 PM 79.4°F26.3°C 50.8°F10.4°C 37% 5.8 mph NNW9.3 kmh NNW 8.1 mph13.0 kmh 30.18 in1022.0 mb - 0.00 in0.0 mm 0.00 in0.0 mm
03:20 PM 80.2°F26.8°C 52.3°F11.3°C 38% 6.9 mph W11.1 kmh W 9.2 mph14.8 kmh 30.18 in1022.0 mb - 0.00 in0.0 mm 0.00 in0.0 mm
03:30 PM 82.0°F27.8°C 53.1°F11.7°C 37% 5.8 mph NNW9.3 kmh NNW 8.1 mph13.0 kmh 30.18 in1022.0 mb - 0.00 in0.0 mm 0.00 in0.0 mm
03:40 PM 81.7°F27.6°C 52.1°F11.2°C 36% 4.6 mph WNW7.4 kmh WNW 5.8 mph9.3 kmh 30.18 in1022.0 mb - 0.00 in0.0 mm 0.00 in0.0 mm
03:50 PM 82.4°F28.0°C 52.8°F11.6°C 36% 5.8 mph NW9.3 kmh NW 5.8 mph9.3 kmh 30.18 in1022.0 mb - 0.00 in0.0 mm 0.00 in0.0 mm
04:00 PM 82.0°F27.8°C 53.2°F11.8°C 37% 6.9 mph NW11.1 kmh NW 9.2 mph14.8 kmh 30.18 in1022.0 mb - 0.00 in0.0 mm 0.00 in0.0 mm
04:10 PM 82.0°F27.8°C 53.2°F11.8°C 37% 4.6 mph NNW7.4 kmh NNW 5.8 mph9.3 kmh 30.18 in1022.0 mb - 0.00 in0.0 mm 0.00 in0.0 mm
04:20 PM 82.2°F27.9°C 52.6°F11.4°C 36% 5.8 mph NW9.3 kmh NW 8.1 mph13.0 kmh 30.18 in1022.0 mb - 0.00 in0.0 mm 0.00 in0.0 mm
04:30 PM 82.0°F27.8°C 53.1°F11.7°C 37% 8.1 mph N13.0 kmh N 10.4 mph16.7 kmh 30.18 in1022.0 mb - 0.00 in0.0 mm 0.00 in0.0 mm
04:40 PM 81.5°F27.5°C 52.0°F11.1°C 36% 4.6 mph NNW7.4 kmh NNW 10.4 mph16.7 kmh 30.18 in1022.0 mb - 0.00 in0.0 mm 0.00 in0.0 mm
04:50 PM 81.6°F27.6°C 52.0°F11.1°C 36% 4.6 mph N7.4 kmh N 5.8 mph9.3 kmh 30.18 in1022.0 mb - 0.00 in0.0 mm 0.00 in0.0 mm
05:00 PM 81.0°F27.2°C 52.3°F11.3°C 37% 4.6 mph N7.4 kmh N 4.6 mph7.4 kmh 30.18 in1022.0 mb - 0.00 in0.0 mm 0.00 in0.0 mm
05:10 PM 80.7°F27.1°C 52.0°F11.1°C 37% 2.3 mph NE3.7 kmh NE 3.5 mph5.6 kmh 30.18 in1022.0 mb - 0.00 in0.0 mm 0.00 in0.0 mm
05:20 PM 80.1°F26.7°C 51.5°F10.8°C 37% 4.6 mph N7.4 kmh N 5.8 mph9.3 kmh 30.18 in1022.0 mb - 0.00 in0.0 mm 0.00 in0.0 mm
05:30 PM 78.9°F26.1°C 51.8°F11.0°C 39% 2.3 mph N3.7 kmh N 3.5 mph5.6 kmh 30.18 in1022.0 mb - 0.00 in0.0 mm 0.00 in0.0 mm
05:40 PM 78.3°F25.7°C 51.3°F10.7°C 39% 4.6 mph NNW7.4 kmh NNW 8.1 mph13.0 kmh 30.18 in1022.0 mb - 0.00 in0.0 mm 0.00 in0.0 mm
05:50 PM 78.0°F25.6°C 51.7°F10.9°C 40% 4.6 mph NNW7.4 kmh NNW 10.4 mph16.7 kmh 30.18 in1022.0 mb - 0.00 in0.0 mm 0.00 in0.0 mm
06:00 PM 76.9°F24.9°C 50.7°F10.4°C 40% 8.1 mph N13.0 kmh N 10.4 mph16.7 kmh 30.15 in1021.0 mb - 0.00 in0.0 mm 0.00 in0.0 mm
06:10 PM 76.8°F24.9°C 51.3°F10.7°C 41% 5.8 mph N9.3 kmh N 8.1 mph13.0 kmh 30.15 in1021.0 mb - 0.00 in0.0 mm 0.00 in0.0 mm
06:20 PM 76.6°F24.8°C 51.2°F10.7°C 41% 4.6 mph NNE7.4 kmh NNE 5.8 mph9.3 kmh 30.18 in1022.0 mb - 0.00 in0.0 mm 0.00 in0.0 mm
06:30 PM 76.3°F24.6°C 50.9°F10.5°C 41% 3.5 mph NE5.6 kmh NE 5.8 mph9.3 kmh 30.18 in1022.0 mb - 0.00 in0.0 mm 0.00 in0.0 mm
06:40 PM 75.4°F24.1°C 50.0°F10.0°C 41% 3.5 mph N5.6 kmh N 6.9 mph11.1 kmh 30.18 in1022.0 mb - 0.00 in0.0 mm 0.00 in0.0 mm
06:50 PM 74.7°F23.7°C 50.0°F10.0°C 42% 4.6 mph NNE7.4 kmh NNE 4.6 mph7.4 kmh 30.18 in1022.0 mb - 0.00 in0.0 mm 0.00 in0.0 mm
07:00 PM 74.1°F23.4°C 50.2°F10.1°C 43% 4.6 mph N7.4 kmh N 5.8 mph9.3 kmh 30.18 in1022.0 mb - 0.00 in0.0 mm 0.00 in0.0 mm
07:10 PM 73.5°F23.1°C 50.2°F10.1°C 44% 1.2 mph NNE1.9 kmh NNE 3.5 mph5.6 kmh 30.18 in1022.0 mb - 0.00 in0.0 mm 0.00 in0.0 mm
07:20 PM 72.7°F22.6°C 50.8°F10.4°C 46% 1.2 mph NNE1.9 kmh NNE 2.3 mph3.7 kmh 30.18 in1022.0 mb - 0.00 in0.0 mm 0.00 in0.0 mm
07:30 PM 72.0°F22.2°C 50.6°F10.3°C 47% 2.3 mph NNW3.7 kmh NNW 4.6 mph7.4 kmh 30.18 in1022.0 mb - 0.00 in0.0 mm 0.00 in0.0 mm
07:40 PM 71.7°F22.1°C 50.9°F10.5°C 48% 3.5 mph NNW5.6 kmh NNW 3.5 mph5.6 kmh 30.18 in1022.0 mb - 0.00 in0.0 mm 0.00 in0.0 mm
07:50 PM 71.4°F21.9°C 51.8°F11.0°C 50% 3.5 mph NNW5.6 kmh NNW 3.5 mph5.6 kmh 30.18 in1022.0 mb - 0.00 in0.0 mm 0.00 in0.0 mm
08:00 PM 70.7°F21.5°C 52.2°F11.2°C 52% 2.3 mph NW3.7 kmh NW 3.5 mph5.6 kmh 30.18 in1022.0 mb - 0.00 in0.0 mm 0.00 in0.0 mm
08:10 PM 69.9°F21.1°C 52.5°F11.4°C 54% 2.3 mph NNW3.7 kmh NNW 3.5 mph5.6 kmh 30.18 in1022.0 mb - 0.00 in0.0 mm 0.00 in0.0 mm
08:20 PM 69.1°F20.6°C 53.2°F11.8°C 57% 3.5 mph N5.6 kmh N 4.6 mph7.4 kmh 30.18 in1022.0 mb - 0.00 in0.0 mm 0.00 in0.0 mm
08:30 PM 68.3°F20.2°C 53.9°F12.2°C 60% 2.3 mph WNW3.7 kmh WNW 3.5 mph5.6 kmh 30.18 in1022.0 mb - 0.00 in0.0 mm 0.00 in0.0 mm
08:40 PM 67.4°F19.7°C 54.0°F12.2°C 62% 3.5 mph NW5.6 kmh NW 3.5 mph5.6 kmh 30.18 in1022.0 mb - 0.00 in0.0 mm 0.00 in0.0 mm
08:50 PM 66.7°F19.3°C 53.7°F12.1°C 63% 2.3 mph NNW3.7 kmh NNW 3.5 mph5.6 kmh 30.18 in1022.0 mb - 0.00 in0.0 mm 0.00 in0.0 mm
09:00 PM 66.1°F18.9°C 54.0°F12.2°C 65% 2.3 mph NNW3.7 kmh NNW 3.5 mph5.6 kmh 30.18 in1022.0 mb - 0.00 in0.0 mm 0.00 in0.0 mm
09:10 PM 65.5°F18.6°C 53.8°F12.1°C 66% 2.3 mph N3.7 kmh N 4.6 mph7.4 kmh 30.18 in1022.0 mb - 0.00 in0.0 mm 0.00 in0.0 mm
09:20 PM 65.1°F18.4°C 54.3°F12.4°C 68% 3.5 mph NW5.6 kmh NW 4.6 mph7.4 kmh 30.18 in1022.0 mb - 0.00 in0.0 mm 0.00 in0.0 mm
09:30 PM 64.8°F18.2°C 54.0°F12.2°C 68% 1.2 mph N1.9 kmh N 3.5 mph5.6 kmh 30.18 in1022.0 mb - 0.00 in0.0 mm 0.00 in0.0 mm
09:40 PM 64.3°F17.9°C 54.0°F12.2°C 69% Calm Calm -- 30.18 in1022.0 mb - 0.00 in0.0 mm 0.00 in0.0 mm
09:50 PM 63.7°F17.6°C 53.7°F12.1°C 70% Calm Calm -- 30.18 in1022.0 mb - 0.00 in0.0 mm 0.00 in0.0 mm
10:00 PM 63.0°F17.2°C 53.4°F11.9°C 71% Calm Calm -- 30.18 in1022.0 mb - 0.00 in0.0 mm 0.00 in0.0 mm
10:10 PM 62.2°F16.8°C 53.5°F11.9°C 73% Calm Calm -- 30.18 in1022.0 mb - 0.00 in0.0 mm 0.00 in0.0 mm
10:20 PM 61.7°F16.5°C 53.3°F11.8°C 74% Calm Calm -- 30.18 in1022.0 mb - 0.00 in0.0 mm 0.00 in0.0 mm
10:30 PM 61.2°F16.2°C 53.6°F12.0°C 76% Calm Calm -- 30.18 in1022.0 mb - 0.00 in0.0 mm 0.00 in0.0 mm
10:40 PM 60.8°F16.0°C 53.9°F12.2°C 78% Calm Calm -- 30.18 in1022.0 mb - 0.00 in0.0 mm 0.00 in0.0 mm
10:50 PM 60.3°F15.7°C 53.7°F12.1°C 79% Calm Calm -- 30.18 in1022.0 mb - 0.00 in0.0 mm 0.00 in0.0 mm
11:00 PM 59.9°F15.5°C 53.7°F12.1°C 80% Calm Calm -- 30.18 in1022.0 mb - 0.00 in0.0 mm 0.00 in0.0 mm
11:10 PM 59.4°F15.2°C 53.9°F12.2°C 82% Calm Calm -- 30.18 in1022.0 mb - 0.00 in0.0 mm 0.00 in0.0 mm
11:20 PM 59.2°F15.1°C 54.0°F12.2°C 83% Calm Calm -- 30.18 in1022.0 mb - 0.00 in0.0 mm 0.00 in0.0 mm
11:30 PM 59.0°F15.0°C 54.2°F12.3°C 84% Calm Calm -- 30.18 in1022.0 mb - 0.00 in0.0 mm 0.00 in0.0 mm
11:40 PM 58.8°F14.9°C 54.3°F12.4°C 85% Calm Calm -- 30.18 in1022.0 mb - 0.00 in0.0 mm 0.00 in0.0 mm
11:50 PM 58.5°F14.7°C 54.3°F12.4°C 86% 1.2 mph N1.9 kmh N 3.5 mph5.6 kmh 30.18 in1022.0 mb - 0.00 in0.0 mm 0.00 in0.0 mm